createdAt,value
2019-04-01T00:02:10.710Z,34.03
2019-04-01T00:04:40.314Z,34.80
2019-04-01T00:07:11.347Z,34.20
2019-04-01T00:09:40.806Z,36.70
2019-04-01T00:12:10.226Z,33.27
2019-04-01T00:14:39.828Z,32.33
2019-04-01T00:17:10.614Z,33.80
2019-04-01T00:19:40.129Z,32.97
2019-04-01T00:22:10.908Z,33.07
2019-04-01T00:24:41.223Z,34.53
2019-04-01T00:27:10.632Z,33.07
2019-04-01T00:29:40.070Z,33.20
2019-04-01T00:32:09.746Z,31.70
2019-04-01T00:34:39.275Z,30.17
2019-04-01T00:37:10.240Z,34.40
2019-04-01T00:39:39.755Z,32.33
2019-04-01T00:42:12.385Z,31.17
2019-04-01T00:44:41.947Z,33.93
2019-04-01T00:47:11.426Z,32.07
2019-04-01T00:49:40.874Z,34.77
2019-04-01T00:52:10.286Z,33.47
2019-04-01T00:54:39.738Z,34.90
2019-04-01T00:57:09.278Z,34.97
2019-04-01T00:59:38.793Z,35.00
2019-04-01T01:02:08.279Z,35.23
2019-04-01T01:04:37.883Z,34.10
2019-04-01T01:07:08.930Z,33.23
2019-04-01T01:09:38.374Z,33.90
2019-04-01T01:12:08.171Z,34.77
2019-04-01T01:14:37.682Z,34.10
2019-04-01T01:17:08.473Z,32.90
2019-04-01T01:19:38.186Z,35.40
2019-04-01T01:22:07.662Z,33.10
2019-04-01T01:24:37.126Z,32.83
2019-04-01T01:27:08.206Z,31.52
2019-04-01T01:29:37.660Z,34.47
2019-04-01T01:32:07.138Z,32.40
2019-04-01T01:34:36.738Z,33.37
2019-04-01T01:37:06.158Z,34.83
2019-04-01T01:39:35.609Z,35.03
2019-04-01T01:42:05.149Z,32.50
2019-04-01T01:44:34.601Z,32.88
2019-04-01T01:47:05.723Z,33.60
2019-04-01T01:49:35.196Z,34.18
2019-04-01T01:52:04.693Z,36.23
2019-04-01T01:54:34.303Z,35.65
2019-04-01T01:57:03.810Z,35.52
2019-04-01T01:59:33.311Z,34.78
2019-04-01T02:02:04.506Z,35.03
2019-04-01T02:04:34.466Z,36.30
2019-04-01T02:07:04.086Z,34.48
2019-04-01T02:09:33.577Z,34.60
2019-04-01T02:12:03.029Z,32.28
2019-04-01T02:14:32.450Z,31.13
2019-04-01T02:17:03.368Z,36.43
2019-04-01T02:19:32.929Z,34.73
2019-04-01T02:22:02.530Z,35.10
2019-04-01T02:24:32.022Z,35.03
2019-04-01T02:27:02.954Z,33.40
2019-04-01T02:29:32.374Z,33.28
2019-04-01T02:32:03.197Z,35.58
2019-04-01T02:34:32.735Z,31.48
2019-04-01T02:37:03.500Z,30.62
2019-04-01T02:39:32.945Z,31.83
2019-04-01T02:42:02.654Z,32.70
2019-04-01T02:44:32.067Z,30.83
2019-04-01T02:47:02.899Z,30.00
2019-04-01T02:49:32.305Z,33.43
2019-04-01T02:52:01.762Z,31.40
2019-04-01T02:54:31.196Z,33.60
2019-04-01T02:57:00.716Z,32.97
2019-04-01T02:59:30.142Z,31.55
2019-04-01T03:02:00.967Z,31.77
2019-04-01T03:04:30.455Z,30.20
2019-04-01T03:07:01.373Z,28.67
2019-04-01T03:09:30.880Z,29.10
2019-04-01T03:12:01.921Z,32.25
2019-04-01T03:14:31.341Z,29.80
2019-04-01T03:17:02.263Z,29.17
2019-04-01T03:19:31.673Z,30.30
2019-04-01T03:22:01.165Z,31.43
2019-04-01T03:24:30.748Z,28.93
2019-04-01T03:27:01.472Z,32.83
2019-04-01T03:29:30.967Z,31.75
2019-04-01T03:32:01.856Z,31.70
2019-04-01T03:34:31.319Z,30.60
2019-04-01T03:37:02.038Z,30.43
2019-04-01T03:39:31.449Z,41.37
2019-04-01T03:42:00.902Z,40.43
2019-04-01T03:44:30.396Z,35.40
2019-04-01T03:47:01.203Z,33.60
2019-04-01T03:49:30.617Z,30.53
2019-04-01T03:52:01.435Z,31.20
2019-04-01T03:54:30.923Z,31.20
2019-04-01T03:57:01.504Z,33.30
2019-04-01T03:59:32.415Z,32.90
2019-04-01T04:02:02.028Z,30.20
2019-04-01T04:04:31.588Z,34.85
2019-04-01T04:07:01.139Z,33.60
2019-04-01T04:09:30.543Z,36.42
2019-04-01T04:12:00.046Z,38.55
2019-04-01T04:14:29.460Z,33.63
2019-04-01T04:17:00.391Z,32.55
2019-04-01T04:19:29.802Z,34.75
2019-04-01T04:21:59.251Z,32.28
2019-04-01T04:24:28.753Z,36.73
2019-04-01T04:26:58.362Z,32.17
2019-04-01T04:29:27.890Z,34.35
2019-04-01T04:31:57.376Z,34.10
2019-04-01T04:34:26.976Z,32.53
2019-04-01T04:36:57.730Z,33.20
2019-04-01T04:39:27.134Z,29.65
2019-04-01T04:41:57.957Z,29.48
2019-04-01T04:44:27.374Z,37.95
2019-04-01T04:46:56.829Z,38.02
2019-04-01T04:49:26.265Z,37.00
2019-04-01T04:51:57.067Z,34.88
2019-04-01T04:54:26.479Z,29.37
2019-04-01T04:56:57.482Z,35.23
2019-04-01T04:59:27.077Z,32.95
2019-04-01T05:01:57.821Z,31.20
2019-04-01T05:04:27.244Z,32.33
2019-04-01T05:06:56.702Z,29.18
2019-04-01T05:09:27.969Z,29.92
2019-04-01T05:11:57.369Z,28.25
2019-04-01T05:14:26.881Z,28.02
2019-04-01T05:16:57.796Z,26.85
2019-04-01T05:19:27.218Z,29.67
2019-04-01T05:21:56.922Z,27.70
2019-04-01T05:24:26.451Z,26.82
2019-04-01T05:26:57.835Z,27.50
2019-04-01T05:29:27.431Z,27.65
2019-04-01T05:31:58.345Z,26.50
2019-04-01T05:34:28.969Z,27.30
2019-04-01T05:36:58.559Z,28.55
2019-04-01T05:39:27.982Z,27.20
2019-04-01T05:41:58.975Z,29.82
2019-04-01T05:44:28.464Z,28.15
2019-04-01T05:46:59.450Z,25.97
2019-04-01T05:49:28.874Z,26.57
2019-04-01T05:51:58.322Z,24.02
2019-04-01T05:54:27.742Z,27.37
2019-04-01T05:56:57.202Z,25.80
2019-04-01T05:59:28.765Z,23.62
2019-04-01T06:01:59.542Z,21.87
2019-04-01T06:04:28.969Z,22.50
2019-04-01T06:06:58.607Z,23.53
2019-04-01T06:09:28.029Z,23.83
2019-04-01T06:11:58.944Z,22.83
2019-04-01T06:14:28.445Z,24.30
2019-04-01T06:16:57.959Z,23.80
2019-04-01T06:19:27.438Z,24.70
2019-04-01T06:21:58.522Z,23.67
2019-04-01T06:24:28.010Z,22.30
2019-04-01T06:26:58.934Z,19.93
2019-04-01T06:29:28.355Z,20.07
2019-04-01T06:31:57.839Z,19.23
2019-04-01T06:34:27.355Z,19.87
2019-04-01T06:36:56.831Z,17.50
2019-04-01T06:39:26.355Z,18.53
2019-04-01T06:41:55.825Z,23.30
2019-04-01T06:44:25.262Z,18.80
2019-04-01T06:46:56.155Z,16.67
2019-04-01T06:49:25.674Z,16.40
2019-04-01T06:51:56.354Z,17.70
2019-04-01T06:54:25.867Z,18.73
2019-04-01T06:56:55.346Z,17.40
2019-04-01T06:59:24.795Z,16.70
2019-04-01T07:01:55.679Z,16.10
2019-04-01T07:04:25.130Z,16.43
2019-04-01T07:06:54.617Z,16.50
2019-04-01T07:09:24.139Z,15.43
2019-04-01T07:11:53.632Z,14.97
2019-04-01T07:14:23.082Z,15.57
2019-04-01T07:16:53.870Z,14.30
2019-04-01T07:19:23.320Z,14.77
2019-04-01T07:21:54.391Z,12.50
2019-04-01T07:24:23.826Z,14.97
2019-04-01T07:26:53.243Z,14.13
2019-04-01T07:29:22.694Z,13.90
2019-04-01T07:31:53.579Z,13.10
2019-04-01T07:34:23.025Z,12.67
2019-04-01T07:36:53.814Z,13.00
2019-04-01T07:39:23.326Z,13.40
2019-04-01T07:41:52.808Z,14.27
2019-04-01T07:44:22.319Z,14.53
2019-04-01T07:46:51.806Z,13.83
2019-04-01T07:49:21.322Z,12.97
2019-04-01T07:51:52.125Z,16.20
2019-04-01T07:54:21.630Z,14.40
2019-04-01T07:56:52.510Z,14.87
2019-04-01T07:59:21.963Z,15.63
2019-04-01T08:01:52.941Z,12.80
2019-04-01T08:04:23.212Z,13.13
2019-04-01T08:06:52.747Z,14.43
2019-04-01T08:09:22.197Z,12.90
2019-04-01T08:11:52.892Z,13.20
2019-04-01T08:14:22.415Z,13.90
2019-04-01T08:16:51.898Z,12.60
2019-04-01T08:19:21.418Z,14.73
2019-04-01T08:21:52.454Z,16.20
2019-04-01T08:24:22.131Z,18.10
2019-04-01T08:26:51.609Z,15.73
2019-04-01T08:29:30.190Z,14.63
2019-04-01T08:31:54.323Z,12.60
2019-04-01T08:34:23.843Z,12.20
2019-04-01T08:36:53.356Z,13.83
2019-04-01T08:39:22.871Z,14.97
2019-04-01T08:41:52.360Z,12.80
2019-04-01T08:44:21.873Z,13.03
2019-04-01T08:46:51.366Z,13.13
2019-04-01T08:49:20.888Z,12.03
2019-04-01T08:51:51.569Z,11.90
2019-04-01T08:54:21.027Z,12.97
2019-04-01T08:56:50.514Z,14.10
2019-04-01T08:59:20.025Z,13.23
2019-04-01T09:01:51.045Z,13.70
2019-04-01T09:04:20.569Z,14.90
2019-04-01T09:06:49.983Z,13.70
2019-04-01T09:09:19.778Z,12.73
2019-04-01T09:11:50.465Z,11.70
2019-04-01T09:14:19.979Z,12.20
2019-04-01T09:16:49.390Z,12.00
2019-04-01T09:19:18.911Z,13.37
2019-04-01T09:21:48.400Z,12.03
2019-04-01T09:24:17.840Z,11.93
2019-04-01T09:26:47.317Z,13.00
2019-04-01T09:29:16.827Z,11.37
2019-04-01T09:31:47.606Z,11.47
2019-04-01T09:34:17.118Z,12.80
2019-04-01T09:36:46.613Z,13.80
2019-04-01T09:39:16.125Z,15.17
2019-04-01T09:41:45.612Z,14.23
2019-04-01T09:44:15.057Z,12.57
2019-04-01T09:46:48.839Z,13.00
2019-04-01T09:49:16.976Z,11.53
2019-04-01T09:51:49.155Z,12.40
2019-04-01T09:54:18.702Z,12.53
2019-04-01T09:56:48.200Z,13.47
2019-04-01T09:59:17.630Z,13.30
2019-04-01T10:01:47.115Z,11.83
2019-04-01T10:04:16.567Z,12.70
2019-04-01T10:06:45.974Z,12.83
2019-04-01T10:09:15.423Z,12.77
2019-04-01T10:11:44.990Z,14.60
2019-04-01T10:14:14.453Z,15.00
2019-04-01T10:16:43.865Z,12.10
2019-04-01T10:19:13.389Z,12.93
2019-04-01T10:21:45.265Z,12.60
2019-04-01T10:24:13.999Z,13.53
2019-04-01T10:26:43.477Z,14.00
2019-04-01T10:29:12.929Z,14.30
2019-04-01T10:31:42.329Z,13.00
2019-04-01T10:34:11.950Z,13.80
2019-04-01T10:36:41.431Z,14.33
2019-04-01T10:39:10.923Z,12.70
2019-04-01T10:41:41.644Z,12.27
2019-04-01T10:44:11.122Z,14.07
2019-04-01T10:46:41.025Z,14.43
2019-04-01T10:49:10.485Z,14.10
2019-04-01T10:51:41.219Z,14.40
2019-04-01T10:54:10.714Z,13.23
2019-04-01T10:56:41.527Z,13.80
2019-04-01T10:59:10.891Z,14.30
2019-04-01T11:01:40.361Z,14.70
2019-04-01T11:04:09.761Z,14.10
2019-04-01T11:06:40.573Z,15.90
2019-04-01T11:09:11.272Z,14.27
2019-04-01T11:11:42.162Z,14.17
2019-04-01T11:14:11.672Z,15.60
2019-04-01T11:16:41.110Z,14.73
2019-04-01T11:19:10.615Z,14.17
2019-04-01T11:21:41.322Z,14.70
2019-04-01T11:24:10.740Z,14.40
2019-04-01T11:26:41.658Z,13.83
2019-04-01T11:29:11.139Z,14.40
2019-04-01T11:31:40.655Z,13.80
2019-04-01T11:34:10.154Z,14.90
2019-04-01T11:36:39.669Z,16.40
2019-04-01T11:39:09.545Z,15.80
2019-04-01T11:41:40.389Z,14.20
2019-04-01T11:44:09.907Z,17.70
2019-04-01T11:46:39.379Z,18.37
2019-04-01T11:49:08.859Z,15.33
2019-04-01T11:51:40.463Z,14.50
2019-04-01T11:54:10.475Z,14.63
2019-04-01T11:56:41.864Z,16.13
2019-04-01T11:59:11.275Z,15.27
2019-04-01T12:01:42.000Z,16.10
2019-04-01T12:04:11.406Z,14.83
2019-04-01T12:06:42.327Z,15.20
2019-04-01T12:09:11.745Z,15.70
2019-04-01T12:11:41.187Z,15.90
2019-04-01T12:14:10.615Z,13.97
2019-04-01T12:16:41.330Z,16.47
2019-04-01T12:19:10.746Z,19.13
2019-04-01T12:21:41.566Z,17.13
2019-04-01T12:24:11.130Z,15.00
2019-04-01T12:26:41.941Z,15.03
2019-04-01T12:29:12.266Z,16.97
2019-04-01T12:31:42.007Z,14.47
2019-04-01T12:34:11.428Z,16.57
2019-04-01T12:36:40.862Z,16.23
2019-04-01T12:39:10.348Z,15.20
2019-04-01T12:41:41.054Z,15.33
2019-04-01T12:44:11.242Z,14.70
2019-04-01T12:46:42.385Z,13.93
2019-04-01T12:49:11.797Z,14.47
2019-04-01T12:51:41.319Z,15.73
2019-04-01T12:54:10.795Z,16.20
2019-04-01T12:56:40.309Z,14.80
2019-04-01T12:59:09.801Z,16.30
2019-04-01T13:01:39.230Z,14.30
2019-04-01T13:04:08.713Z,15.67
2019-04-01T13:06:39.532Z,15.50
2019-04-01T13:09:09.019Z,14.70
2019-04-01T13:11:40.006Z,17.13
2019-04-01T13:14:09.409Z,14.40
2019-04-01T13:16:40.130Z,13.20
2019-04-01T13:19:09.550Z,15.10
2019-04-01T13:21:39.905Z,14.03
2019-04-01T13:24:09.475Z,16.47
2019-04-01T13:26:38.924Z,15.57
2019-04-01T13:29:08.412Z,14.60
2019-04-01T13:31:39.225Z,14.77
2019-04-01T13:34:08.717Z,15.10
2019-04-01T13:36:38.231Z,15.90
2019-04-01T13:39:07.790Z,15.60
2019-04-01T13:41:42.687Z,14.75
2019-04-01T13:44:09.736Z,15.43
2019-04-01T13:46:39.257Z,16.37
2019-04-01T13:49:08.734Z,15.40
2019-04-01T13:51:43.039Z,16.67
2019-04-01T13:54:11.541Z,15.50
2019-04-01T13:56:43.056Z,17.20
2019-04-01T13:59:12.876Z,15.23
2019-04-01T14:01:43.646Z,15.40
2019-04-01T14:04:13.066Z,16.03
2019-04-01T14:06:42.578Z,16.10
2019-04-01T14:09:12.078Z,15.40
2019-04-01T14:11:42.992Z,16.63
2019-04-01T14:14:12.411Z,14.83
2019-04-01T14:16:43.231Z,14.90
2019-04-01T14:19:12.738Z,16.57
2019-04-01T14:21:42.192Z,14.77
2019-04-01T14:24:11.598Z,14.70
2019-04-01T14:26:41.343Z,16.20
2019-04-01T14:29:10.747Z,15.60
2019-04-01T14:31:41.462Z,15.90
2019-04-01T14:34:13.839Z,15.73
2019-04-01T14:36:43.305Z,16.00
2019-04-01T14:39:12.731Z,14.80
2019-04-01T14:41:43.447Z,16.63
2019-04-01T14:44:12.858Z,15.70
2019-04-01T14:46:43.567Z,16.97
2019-04-01T14:49:12.984Z,18.90
2019-04-01T14:51:42.615Z,16.00
2019-04-01T14:54:12.029Z,18.50
2019-04-01T14:56:41.537Z,17.80
2019-04-01T14:59:11.018Z,18.10
2019-04-01T15:01:40.536Z,16.67
2019-04-01T15:04:10.018Z,19.00
2019-04-01T15:06:39.531Z,18.10
2019-04-01T15:09:09.320Z,17.80
2019-04-01T15:11:40.060Z,17.70
2019-04-01T15:14:09.484Z,17.70
2019-04-01T15:16:40.205Z,18.63
2019-04-01T15:19:12.609Z,17.50
2019-04-01T15:21:42.083Z,17.20
2019-04-01T15:24:11.523Z,18.37
2019-04-01T15:26:41.006Z,18.20
2019-04-01T15:29:10.454Z,18.87
2019-04-01T15:31:39.857Z,16.80
2019-04-01T15:34:09.518Z,18.00
2019-04-01T15:36:39.277Z,18.00
2019-04-01T15:39:10.437Z,18.33
2019-04-01T15:41:40.518Z,19.03
2019-04-01T15:44:09.966Z,19.20
2019-04-01T15:46:39.443Z,19.10
2019-04-01T15:49:11.291Z,20.20
2019-04-01T15:51:39.996Z,19.70
2019-04-01T15:54:09.426Z,19.43
2019-04-01T15:56:41.679Z,18.40
2019-04-01T15:59:09.908Z,20.10
2019-04-01T16:01:39.321Z,19.17
2019-04-01T16:04:08.967Z,20.87
2019-04-01T16:06:38.353Z,19.80
2019-04-01T16:09:07.875Z,20.53
2019-04-01T16:11:38.473Z,18.67
2019-04-01T16:14:07.978Z,19.80
2019-04-01T16:16:37.571Z,20.13
2019-04-01T16:19:07.022Z,18.30
2019-04-01T16:21:37.797Z,18.97
2019-04-01T16:24:10.869Z,18.90
2019-04-01T16:26:38.418Z,18.80
2019-04-01T16:29:07.863Z,18.87
2019-04-01T16:31:38.543Z,18.90
2019-04-01T16:34:07.995Z,18.77
2019-04-01T16:36:38.719Z,19.03
2019-04-01T16:39:08.482Z,19.27
2019-04-01T16:41:37.982Z,18.50
2019-04-01T16:44:07.416Z,18.90
2019-04-01T16:46:36.902Z,20.77
2019-04-01T16:49:07.469Z,19.87
2019-04-01T16:51:41.203Z,19.30
2019-04-01T16:54:09.467Z,18.13
2019-04-01T16:56:40.153Z,19.37
2019-04-01T16:59:09.679Z,18.80
2019-04-01T17:01:41.643Z,18.97
2019-04-01T17:04:11.314Z,19.57
2019-04-01T17:06:40.723Z,19.13
2019-04-01T17:09:10.240Z,19.93
2019-04-01T17:11:41.028Z,18.43
2019-04-01T17:14:10.481Z,19.73
2019-04-01T17:16:40.001Z,20.00
2019-04-01T17:19:09.447Z,18.00
2019-04-01T17:21:40.239Z,18.97
2019-04-01T17:24:09.694Z,19.70
2019-04-01T17:27:03.342Z,23.07
2019-04-01T17:29:32.849Z,19.80
2019-04-01T17:32:03.535Z,19.70
2019-04-01T17:34:32.987Z,19.30
2019-04-01T17:37:03.677Z,21.00
2019-04-01T17:39:34.156Z,17.50
2019-04-01T17:42:05.349Z,18.73
2019-04-01T17:44:34.871Z,18.70
2019-04-01T17:47:06.314Z,24.70
2019-04-01T17:49:35.994Z,19.07
2019-04-01T17:52:06.883Z,17.40
2019-04-01T17:54:36.326Z,17.90
2019-04-01T17:57:05.746Z,17.80
2019-04-01T17:59:35.254Z,16.43
2019-04-01T18:02:09.279Z,17.17
2019-04-01T18:04:38.802Z,17.37
2019-04-01T18:07:08.291Z,15.87
2019-04-01T18:09:37.805Z,16.50
2019-04-01T18:12:07.298Z,17.10
2019-04-01T18:14:36.815Z,17.57
2019-04-01T18:17:06.242Z,16.50
2019-04-01T18:19:36.251Z,17.57
2019-04-01T18:22:05.959Z,17.30
2019-04-01T18:24:35.483Z,17.40
2019-04-01T18:27:06.271Z,15.93
2019-04-01T18:29:35.783Z,16.50
2019-04-01T18:32:05.272Z,16.90
2019-04-01T18:34:34.782Z,17.10
2019-04-01T18:37:04.266Z,27.23
2019-04-01T18:39:47.169Z,16.90
2019-04-01T18:42:06.185Z,16.90
2019-04-01T18:44:35.695Z,15.80
2019-04-01T18:47:06.491Z,16.23
2019-04-01T18:49:36.007Z,15.93
2019-04-01T18:52:06.895Z,17.53
2019-04-01T18:54:36.415Z,16.80
2019-04-01T18:57:07.203Z,17.67
2019-04-01T18:59:36.707Z,16.43
2019-04-01T19:02:07.597Z,16.13
2019-04-01T19:04:37.382Z,17.37
2019-04-01T19:07:06.918Z,16.90
2019-04-01T19:09:36.430Z,16.70
2019-04-01T19:12:07.432Z,18.43
2019-04-01T19:14:36.943Z,19.13
2019-04-01T19:17:06.426Z,16.23
2019-04-01T19:19:35.900Z,17.47
2019-04-01T19:22:05.421Z,18.10
2019-04-01T19:24:34.823Z,16.97
2019-04-01T19:27:05.527Z,16.43
2019-04-01T19:29:34.965Z,17.17
2019-04-01T19:32:04.380Z,16.37
2019-04-01T19:34:33.964Z,18.60
2019-04-01T19:37:03.458Z,16.30
2019-04-01T19:39:32.971Z,18.40
2019-04-01T19:42:02.522Z,17.20
2019-04-01T19:44:32.039Z,17.20
2019-04-01T19:47:02.742Z,16.60
2019-04-01T19:49:33.118Z,17.30
2019-04-01T19:52:02.845Z,17.60
2019-04-01T19:54:34.054Z,19.43
2019-04-01T19:57:04.381Z,19.80
2019-04-01T19:59:35.759Z,18.10
2019-04-01T20:02:09.291Z,22.40
2019-04-01T20:04:37.469Z,18.30
2019-04-01T20:07:09.844Z,21.10
2019-04-01T20:09:39.373Z,17.93
2019-04-01T20:12:10.055Z,17.30
2019-04-01T20:14:40.167Z,18.17
2019-04-01T20:17:10.159Z,16.80
2019-04-01T20:19:40.067Z,18.73
2019-04-01T20:22:09.514Z,19.60
2019-04-01T20:24:39.015Z,18.00
2019-04-01T20:27:09.742Z,19.27
2019-04-01T20:29:40.243Z,18.83
2019-04-01T20:32:17.049Z,18.20
2019-04-01T20:34:42.385Z,18.47
2019-04-01T20:37:11.840Z,17.20
2019-04-01T20:39:41.259Z,17.50
2019-04-01T20:42:10.713Z,16.83
2019-04-01T20:44:40.316Z,17.53
2019-04-01T20:47:10.831Z,14.50
2019-04-01T20:49:40.312Z,15.97
2019-04-01T20:52:09.845Z,16.03
2019-04-01T20:54:39.260Z,15.40
2019-04-01T20:57:10.185Z,13.97
2019-04-01T20:59:40.153Z,15.03
2019-04-01T21:02:11.810Z,14.50
2019-04-01T21:04:41.302Z,15.40
2019-04-01T21:07:10.832Z,14.07
2019-04-01T21:09:40.314Z,15.10
2019-04-01T21:12:09.781Z,12.90
2019-04-01T21:14:39.191Z,13.20
2019-04-01T21:17:08.714Z,12.80
2019-04-01T21:19:38.204Z,14.40
2019-04-01T21:22:08.094Z,13.30
2019-04-01T21:24:37.556Z,13.57
2019-04-01T21:27:08.478Z,13.03
2019-04-01T21:29:37.979Z,13.70
2019-04-01T21:32:07.502Z,12.47
2019-04-01T21:34:36.991Z,12.70
2019-04-01T21:37:07.817Z,12.00
2019-04-01T21:39:37.928Z,12.03
2019-04-01T21:42:08.822Z,12.50
2019-04-01T21:44:38.387Z,12.50
2019-04-01T21:47:09.327Z,11.87
2019-04-01T21:49:38.795Z,12.10
2019-04-01T21:52:09.726Z,13.77
2019-04-01T21:54:39.217Z,12.53
2019-04-01T21:57:08.706Z,11.53
2019-04-01T21:59:38.165Z,12.00
2019-04-01T22:02:07.855Z,11.70
2019-04-01T22:04:37.375Z,13.07
2019-04-01T22:07:06.859Z,11.37
2019-04-01T22:09:36.379Z,11.57
2019-04-01T22:12:07.167Z,13.70
2019-04-01T22:14:36.688Z,12.70
2019-04-01T22:17:07.474Z,10.87
2019-04-01T22:19:36.993Z,12.40
2019-04-01T22:22:06.474Z,11.13
2019-04-01T22:24:36.000Z,12.60
2019-04-01T22:27:05.487Z,23.03
2019-04-01T22:29:35.701Z,12.07
2019-04-01T22:32:06.401Z,12.03
2019-04-01T22:34:35.842Z,12.07
2019-04-01T22:37:05.391Z,12.37
2019-04-01T22:39:34.905Z,12.40
2019-04-01T22:42:05.861Z,13.97
2019-04-01T22:44:35.379Z,12.30
2019-04-01T22:47:06.183Z,12.20
2019-04-01T22:49:35.667Z,12.63
2019-04-01T22:52:06.901Z,12.30
2019-04-01T22:54:36.390Z,11.97
2019-04-01T22:57:07.171Z,11.80
2019-04-01T22:59:36.610Z,12.37
2019-04-01T23:02:06.099Z,11.97
2019-04-01T23:04:36.955Z,12.30
2019-04-01T23:07:06.689Z,12.63
2019-04-01T23:09:36.204Z,12.47
2019-04-01T23:12:07.079Z,11.33
2019-04-01T23:14:36.528Z,12.70
2019-04-01T23:17:05.946Z,11.23
2019-04-01T23:19:35.406Z,11.60
2019-04-01T23:22:05.193Z,12.30
2019-04-01T23:24:34.706Z,11.97
2019-04-01T23:27:05.599Z,11.20
2019-04-01T23:29:35.135Z,12.77
2019-04-01T23:32:06.013Z,11.80
2019-04-01T23:34:35.523Z,11.97
2019-04-01T23:37:05.046Z,11.70
2019-04-01T23:39:34.713Z,12.00
2019-04-01T23:42:05.541Z,12.40
2019-04-01T23:44:35.029Z,11.10
2019-04-01T23:47:05.944Z,13.30
2019-04-01T23:49:35.430Z,12.50
2019-04-01T23:52:06.147Z,12.50
2019-04-01T23:54:35.622Z,11.30
2019-04-01T23:57:06.337Z,12.10
2019-04-01T23:59:35.816Z,11.03
